sensor_id;sensor_type;location;lat;lon;timestamp;P1;durP1;ratioP1;P2;durP2;ratioP2
48613;SDS011;34408;51.426;5.444;2022-09-09T00:00:53;1.65;;;0.90;;
48613;SDS011;34408;51.426;5.444;2022-09-09T00:03:30;3.45;;;1.48;;
48613;SDS011;34408;51.426;5.444;2022-09-09T00:06:06;1.52;;;0.80;;
48613;SDS011;34408;51.426;5.444;2022-09-09T00:08:45;3.13;;;1.25;;
48613;SDS011;34408;51.426;5.444;2022-09-09T00:11:24;1.50;;;1.05;;
48613;SDS011;34408;51.426;5.444;2022-09-09T00:13:57;0.68;;;0.60;;
48613;SDS011;34408;51.426;5.444;2022-09-09T00:16:31;3.03;;;0.73;;
48613;SDS011;34408;51.426;5.444;2022-09-09T00:19:04;0.55;;;0.50;;
48613;SDS011;34408;51.426;5.444;2022-09-09T00:21:35;1.23;;;0.80;;
48613;SDS011;34408;51.426;5.444;2022-09-09T00:24:08;1.35;;;0.70;;
48613;SDS011;34408;51.426;5.444;2022-09-09T00:26:40;1.55;;;0.90;;
48613;SDS011;34408;51.426;5.444;2022-09-09T00:29:14;1.65;;;0.70;;
48613;SDS011;34408;51.426;5.444;2022-09-09T00:31:53;3.80;;;1.00;;
48613;SDS011;34408;51.426;5.444;2022-09-09T00:34:27;1.25;;;0.70;;
48613;SDS011;34408;51.426;5.444;2022-09-09T00:36:56;2.22;;;0.80;;
48613;SDS011;34408;51.426;5.444;2022-09-09T00:39:25;1.38;;;0.68;;
48613;SDS011;34408;51.426;5.444;2022-09-09T00:42:02;2.80;;;0.60;;
48613;SDS011;34408;51.426;5.444;2022-09-09T00:44:43;0.80;;;0.60;;
48613;SDS011;34408;51.426;5.444;2022-09-09T00:50:15;0.70;;;0.68;;
48613;SDS011;34408;51.426;5.444;2022-09-09T00:52:58;2.85;;;1.17;;
48613;SDS011;34408;51.426;5.444;2022-09-09T00:55:34;1.52;;;0.65;;
48613;SDS011;34408;51.426;5.444;2022-09-09T00:58:09;1.45;;;0.75;;
48613;SDS011;34408;51.426;5.444;2022-09-09T01:00:39;5.50;;;1.02;;
48613;SDS011;34408;51.426;5.444;2022-09-09T01:03:15;3.28;;;0.93;;
48613;SDS011;34408;51.426;5.444;2022-09-09T01:05:54;1.50;;;0.70;;
48613;SDS011;34408;51.426;5.444;2022-09-09T01:08:39;1.10;;;0.70;;
48613;SDS011;34408;51.426;5.444;2022-09-09T01:13:49;1.95;;;0.90;;
48613;SDS011;34408;51.426;5.444;2022-09-09T01:16:25;1.67;;;0.75;;
48613;SDS011;34408;51.426;5.444;2022-09-09T01:18:56;1.85;;;0.80;;
48613;SDS011;34408;51.426;5.444;2022-09-09T01:21:30;1.42;;;0.88;;
48613;SDS011;34408;51.426;5.444;2022-09-09T01:24:12;3.40;;;0.80;;
48613;SDS011;34408;51.426;5.444;2022-09-09T01:26:47;1.45;;;0.70;;
48613;SDS011;34408;51.426;5.444;2022-09-09T01:29:17;1.15;;;0.70;;
48613;SDS011;34408;51.426;5.444;2022-09-09T01:31:52;0.93;;;0.75;;
48613;SDS011;34408;51.426;5.444;2022-09-09T01:34:21;1.30;;;0.60;;
48613;SDS011;34408;51.426;5.444;2022-09-09T01:36:52;0.85;;;0.50;;
48613;SDS011;34408;51.426;5.444;2022-09-09T01:39:24;2.60;;;0.80;;
48613;SDS011;34408;51.426;5.444;2022-09-09T01:41:54;1.65;;;0.93;;
48613;SDS011;34408;51.426;5.444;2022-09-09T01:44:24;2.30;;;1.00;;
48613;SDS011;34408;51.426;5.444;2022-09-09T01:46:53;6.38;;;0.80;;
48613;SDS011;34408;51.426;5.444;2022-09-09T01:49:20;3.33;;;1.33;;
48613;SDS011;34408;51.426;5.444;2022-09-09T01:51:49;1.55;;;0.88;;
48613;SDS011;34408;51.426;5.444;2022-09-09T01:54:19;1.02;;;0.80;;
48613;SDS011;34408;51.426;5.444;2022-09-09T01:56:52;3.22;;;1.10;;
48613;SDS011;34408;51.426;5.444;2022-09-09T01:59:37;2.95;;;0.82;;
48613;SDS011;34408;51.426;5.444;2022-09-09T02:02:16;5.18;;;0.88;;
48613;SDS011;34408;51.426;5.444;2022-09-09T02:04:47;1.73;;;1.02;;
48613;SDS011;34408;51.426;5.444;2022-09-09T02:07:21;2.53;;;0.93;;
48613;SDS011;34408;51.426;5.444;2022-09-09T02:10:00;0.88;;;0.75;;
48613;SDS011;34408;51.426;5.444;2022-09-09T02:12:33;1.45;;;0.63;;
48613;SDS011;34408;51.426;5.444;2022-09-09T02:15:03;1.13;;;1.00;;
48613;SDS011;34408;51.426;5.444;2022-09-09T02:17:36;4.03;;;1.10;;
48613;SDS011;34408;51.426;5.444;2022-09-09T02:20:06;1.90;;;1.10;;
48613;SDS011;34408;51.426;5.444;2022-09-09T02:22:37;4.53;;;1.10;;
48613;SDS011;34408;51.426;5.444;2022-09-09T02:25:08;5.80;;;1.00;;
48613;SDS011;34408;51.426;5.444;2022-09-09T02:27:41;1.98;;;0.90;;
48613;SDS011;34408;51.426;5.444;2022-09-09T02:30:12;1.73;;;0.77;;
48613;SDS011;34408;51.426;5.444;2022-09-09T02:32:42;2.28;;;0.73;;
48613;SDS011;34408;51.426;5.444;2022-09-09T02:35:13;0.95;;;0.60;;
48613;SDS011;34408;51.426;5.444;2022-09-09T02:37:43;1.45;;;0.70;;
48613;SDS011;34408;51.426;5.444;2022-09-09T02:40:13;1.67;;;0.80;;
48613;SDS011;34408;51.426;5.444;2022-09-09T02:42:44;3.10;;;0.90;;
48613;SDS011;34408;51.426;5.444;2022-09-09T02:45:14;3.15;;;1.25;;
48613;SDS011;34408;51.426;5.444;2022-09-09T02:47:47;3.05;;;0.90;;
48613;SDS011;34408;51.426;5.444;2022-09-09T02:50:22;1.75;;;0.93;;
48613;SDS011;34408;51.426;5.444;2022-09-09T02:52:59;1.83;;;0.80;;
48613;SDS011;34408;51.426;5.444;2022-09-09T02:55:37;4.05;;;1.10;;
48613;SDS011;34408;51.426;5.444;2022-09-09T02:58:08;1.40;;;0.98;;
48613;SDS011;34408;51.426;5.444;2022-09-09T03:00:38;2.78;;;0.82;;
48613;SDS011;34408;51.426;5.444;2022-09-09T03:03:07;2.70;;;1.10;;
48613;SDS011;34408;51.426;5.444;2022-09-09T03:05:35;2.33;;;1.10;;
48613;SDS011;34408;51.426;5.444;2022-09-09T03:08:03;2.65;;;0.80;;
48613;SDS011;34408;51.426;5.444;2022-09-09T03:10:32;2.63;;;0.60;;
48613;SDS011;34408;51.426;5.444;2022-09-09T03:13:00;2.63;;;0.90;;
48613;SDS011;34408;51.426;5.444;2022-09-09T03:15:29;5.70;;;0.90;;
48613;SDS011;34408;51.426;5.444;2022-09-09T03:17:57;3.00;;;0.88;;
48613;SDS011;34408;51.426;5.444;2022-09-09T03:20:25;3.47;;;1.10;;
48613;SDS011;34408;51.426;5.444;2022-09-09T03:22:55;2.17;;;0.90;;
48613;SDS011;34408;51.426;5.444;2022-09-09T03:25:23;3.05;;;1.20;;
48613;SDS011;34408;51.426;5.444;2022-09-09T03:27:51;1.77;;;0.88;;
48613;SDS011;34408;51.426;5.444;2022-09-09T03:30:20;3.30;;;1.52;;
48613;SDS011;34408;51.426;5.444;2022-09-09T03:32:49;2.40;;;0.82;;
48613;SDS011;34408;51.426;5.444;2022-09-09T03:35:17;2.65;;;0.98;;
48613;SDS011;34408;51.426;5.444;2022-09-09T03:37:46;3.90;;;0.88;;
48613;SDS011;34408;51.426;5.444;2022-09-09T03:40:14;1.98;;;1.00;;
48613;SDS011;34408;51.426;5.444;2022-09-09T03:42:42;4.00;;;1.00;;
48613;SDS011;34408;51.426;5.444;2022-09-09T03:45:10;1.40;;;0.77;;
48613;SDS011;34408;51.426;5.444;2022-09-09T03:47:37;2.97;;;1.00;;
48613;SDS011;34408;51.426;5.444;2022-09-09T03:50:07;5.70;;;1.08;;
48613;SDS011;34408;51.426;5.444;2022-09-09T03:52:37;2.30;;;1.00;;
48613;SDS011;34408;51.426;5.444;2022-09-09T03:55:07;1.20;;;0.80;;
48613;SDS011;34408;51.426;5.444;2022-09-09T03:57:35;2.60;;;0.70;;
48613;SDS011;34408;51.426;5.444;2022-09-09T04:00:03;2.92;;;0.88;;
48613;SDS011;34408;51.426;5.444;2022-09-09T04:02:32;1.05;;;0.70;;
48613;SDS011;34408;51.426;5.444;2022-09-09T04:05:00;1.40;;;0.75;;
48613;SDS011;34408;51.426;5.444;2022-09-09T04:07:29;1.70;;;1.00;;
48613;SDS011;34408;51.426;5.444;2022-09-09T04:09:57;2.38;;;1.10;;
48613;SDS011;34408;51.426;5.444;2022-09-09T04:12:24;1.58;;;1.00;;
48613;SDS011;34408;51.426;5.444;2022-09-09T04:14:52;2.53;;;1.50;;
48613;SDS011;34408;51.426;5.444;2022-09-09T04:17:20;4.00;;;1.38;;
48613;SDS011;34408;51.426;5.444;2022-09-09T04:19:47;4.43;;;1.23;;
48613;SDS011;34408;51.426;5.444;2022-09-09T04:22:15;4.60;;;1.35;;
48613;SDS011;34408;51.426;5.444;2022-09-09T04:24:44;3.08;;;1.23;;
48613;SDS011;34408;51.426;5.444;2022-09-09T04:27:14;1.90;;;0.95;;
48613;SDS011;34408;51.426;5.444;2022-09-09T04:29:42;1.73;;;0.98;;
48613;SDS011;34408;51.426;5.444;2022-09-09T04:32:09;3.45;;;1.02;;
48613;SDS011;34408;51.426;5.444;2022-09-09T04:34:37;3.30;;;1.13;;
48613;SDS011;34408;51.426;5.444;2022-09-09T04:37:05;3.40;;;1.27;;
48613;SDS011;34408;51.426;5.444;2022-09-09T04:39:33;2.08;;;1.05;;
48613;SDS011;34408;51.426;5.444;2022-09-09T04:42:03;2.83;;;1.08;;
48613;SDS011;34408;51.426;5.444;2022-09-09T04:44:30;2.30;;;0.93;;
48613;SDS011;34408;51.426;5.444;2022-09-09T04:46:58;3.60;;;0.90;;
48613;SDS011;34408;51.426;5.444;2022-09-09T04:49:26;4.75;;;1.08;;
48613;SDS011;34408;51.426;5.444;2022-09-09T04:51:53;3.67;;;1.33;;
48613;SDS011;34408;51.426;5.444;2022-09-09T04:54:21;3.08;;;1.25;;
48613;SDS011;34408;51.426;5.444;2022-09-09T04:56:49;5.38;;;1.15;;
48613;SDS011;34408;51.426;5.444;2022-09-09T04:59:19;2.63;;;0.98;;
48613;SDS011;34408;51.426;5.444;2022-09-09T05:01:46;1.33;;;0.80;;
48613;SDS011;34408;51.426;5.444;2022-09-09T05:04:14;3.90;;;1.10;;
48613;SDS011;34408;51.426;5.444;2022-09-09T05:06:42;3.90;;;1.10;;
48613;SDS011;34408;51.426;5.444;2022-09-09T05:09:10;2.58;;;1.13;;
48613;SDS011;34408;51.426;5.444;2022-09-09T05:11:37;2.90;;;1.35;;
48613;SDS011;34408;51.426;5.444;2022-09-09T05:14:05;3.90;;;1.17;;
48613;SDS011;34408;51.426;5.444;2022-09-09T05:16:34;3.80;;;1.33;;
48613;SDS011;34408;51.426;5.444;2022-09-09T05:19:02;3.55;;;1.40;;
48613;SDS011;34408;51.426;5.444;2022-09-09T05:21:30;3.50;;;0.93;;
48613;SDS011;34408;51.426;5.444;2022-09-09T05:23:57;4.55;;;1.20;;
48613;SDS011;34408;51.426;5.444;2022-09-09T05:26:26;2.17;;;0.98;;
48613;SDS011;34408;51.426;5.444;2022-09-09T05:28:55;2.53;;;1.10;;
48613;SDS011;34408;51.426;5.444;2022-09-09T05:31:23;3.63;;;1.50;;
48613;SDS011;34408;51.426;5.444;2022-09-09T05:33:55;5.40;;;1.70;;
48613;SDS011;34408;51.426;5.444;2022-09-09T05:36:23;4.22;;;2.00;;
48613;SDS011;34408;51.426;5.444;2022-09-09T05:38:51;2.85;;;1.48;;
48613;SDS011;34408;51.426;5.444;2022-09-09T05:41:19;2.85;;;1.20;;
48613;SDS011;34408;51.426;5.444;2022-09-09T05:43:49;6.78;;;1.13;;
48613;SDS011;34408;51.426;5.444;2022-09-09T05:46:17;4.25;;;1.35;;
48613;SDS011;34408;51.426;5.444;2022-09-09T05:48:47;2.92;;;1.10;;
48613;SDS011;34408;51.426;5.444;2022-09-09T05:51:19;4.13;;;1.25;;
48613;SDS011;34408;51.426;5.444;2022-09-09T05:53:48;4.13;;;1.45;;
48613;SDS011;34408;51.426;5.444;2022-09-09T05:56:17;6.72;;;1.48;;
48613;SDS011;34408;51.426;5.444;2022-09-09T05:58:46;4.75;;;1.85;;
48613;SDS011;34408;51.426;5.444;2022-09-09T06:01:15;5.60;;;1.80;;
48613;SDS011;34408;51.426;5.444;2022-09-09T06:03:44;4.05;;;1.30;;
48613;SDS011;34408;51.426;5.444;2022-09-09T06:06:14;4.97;;;1.33;;
48613;SDS011;34408;51.426;5.444;2022-09-09T06:08:44;6.05;;;1.60;;
48613;SDS011;34408;51.426;5.444;2022-09-09T06:11:13;2.45;;;1.00;;
48613;SDS011;34408;51.426;5.444;2022-09-09T06:13:42;2.85;;;1.05;;
48613;SDS011;34408;51.426;5.444;2022-09-09T06:16:11;4.30;;;1.40;;
48613;SDS011;34408;51.426;5.444;2022-09-09T06:18:40;5.20;;;1.58;;
48613;SDS011;34408;51.426;5.444;2022-09-09T06:21:09;8.18;;;1.40;;
48613;SDS011;34408;51.426;5.444;2022-09-09T06:23:40;4.93;;;1.30;;
48613;SDS011;34408;51.426;5.444;2022-09-09T06:26:10;6.22;;;1.83;;
48613;SDS011;34408;51.426;5.444;2022-09-09T06:28:39;5.35;;;1.65;;
48613;SDS011;34408;51.426;5.444;2022-09-09T06:31:10;4.43;;;1.90;;
48613;SDS011;34408;51.426;5.444;2022-09-09T06:33:40;5.78;;;1.70;;
48613;SDS011;34408;51.426;5.444;2022-09-09T06:36:10;6.57;;;1.90;;
48613;SDS011;34408;51.426;5.444;2022-09-09T06:38:39;8.20;;;1.85;;
48613;SDS011;34408;51.426;5.444;2022-09-09T06:41:07;4.47;;;1.63;;
48613;SDS011;34408;51.426;5.444;2022-09-09T06:43:37;6.22;;;1.20;;
48613;SDS011;34408;51.426;5.444;2022-09-09T06:46:06;6.07;;;2.22;;
48613;SDS011;34408;51.426;5.444;2022-09-09T06:48:35;4.55;;;1.13;;
48613;SDS011;34408;51.426;5.444;2022-09-09T06:51:03;3.25;;;1.25;;
48613;SDS011;34408;51.426;5.444;2022-09-09T06:53:33;9.43;;;2.03;;
48613;SDS011;34408;51.426;5.444;2022-09-09T06:56:02;6.18;;;1.67;;
48613;SDS011;34408;51.426;5.444;2022-09-09T06:58:45;7.18;;;1.73;;
48613;SDS011;34408;51.426;5.444;2022-09-09T07:01:13;8.85;;;1.63;;
48613;SDS011;34408;51.426;5.444;2022-09-09T07:03:44;4.60;;;1.58;;
48613;SDS011;34408;51.426;5.444;2022-09-09T07:06:14;7.15;;;1.85;;
48613;SDS011;34408;51.426;5.444;2022-09-09T07:08:44;3.50;;;1.77;;
48613;SDS011;34408;51.426;5.444;2022-09-09T07:11:22;4.85;;;1.40;;
48613;SDS011;34408;51.426;5.444;2022-09-09T07:13:53;6.93;;;1.20;;
48613;SDS011;34408;51.426;5.444;2022-09-09T07:16:21;8.45;;;2.03;;
48613;SDS011;34408;51.426;5.444;2022-09-09T07:18:51;8.52;;;1.70;;
48613;SDS011;34408;51.426;5.444;2022-09-09T07:21:21;5.35;;;1.83;;
48613;SDS011;34408;51.426;5.444;2022-09-09T07:23:50;4.40;;;1.58;;
48613;SDS011;34408;51.426;5.444;2022-09-09T07:26:19;5.50;;;1.88;;
48613;SDS011;34408;51.426;5.444;2022-09-09T07:28:49;7.13;;;2.10;;
48613;SDS011;34408;51.426;5.444;2022-09-09T07:31:19;9.20;;;2.00;;
48613;SDS011;34408;51.426;5.444;2022-09-09T07:33:48;6.00;;;2.17;;
48613;SDS011;34408;51.426;5.444;2022-09-09T07:36:16;4.85;;;1.73;;
48613;SDS011;34408;51.426;5.444;2022-09-09T07:38:48;8.68;;;1.85;;
48613;SDS011;34408;51.426;5.444;2022-09-09T07:41:18;4.90;;;1.58;;
48613;SDS011;34408;51.426;5.444;2022-09-09T07:43:48;5.75;;;2.05;;
48613;SDS011;34408;51.426;5.444;2022-09-09T07:46:17;6.57;;;2.03;;
48613;SDS011;34408;51.426;5.444;2022-09-09T07:48:48;5.68;;;1.67;;
48613;SDS011;34408;51.426;5.444;2022-09-09T07:51:19;8.32;;;1.92;;
48613;SDS011;34408;51.426;5.444;2022-09-09T07:53:50;6.93;;;1.95;;
48613;SDS011;34408;51.426;5.444;2022-09-09T07:56:19;6.38;;;2.00;;
48613;SDS011;34408;51.426;5.444;2022-09-09T07:58:49;4.88;;;1.77;;
48613;SDS011;34408;51.426;5.444;2022-09-09T08:01:21;3.30;;;1.27;;
48613;SDS011;34408;51.426;5.444;2022-09-09T08:03:54;9.20;;;1.83;;
48613;SDS011;34408;51.426;5.444;2022-09-09T08:06:25;10.30;;;2.97;;
48613;SDS011;34408;51.426;5.444;2022-09-09T08:08:53;6.13;;;1.63;;
48613;SDS011;34408;51.426;5.444;2022-09-09T08:11:22;9.82;;;2.35;;
48613;SDS011;34408;51.426;5.444;2022-09-09T08:13:52;8.25;;;1.98;;
48613;SDS011;34408;51.426;5.444;2022-09-09T08:16:29;7.03;;;1.98;;
48613;SDS011;34408;51.426;5.444;2022-09-09T08:18:58;6.47;;;1.75;;
48613;SDS011;34408;51.426;5.444;2022-09-09T08:21:27;6.18;;;1.67;;
48613;SDS011;34408;51.426;5.444;2022-09-09T08:23:56;3.72;;;1.20;;
48613;SDS011;34408;51.426;5.444;2022-09-09T08:26:26;6.13;;;1.77;;
48613;SDS011;34408;51.426;5.444;2022-09-09T08:28:56;3.53;;;1.60;;
48613;SDS011;34408;51.426;5.444;2022-09-09T08:31:25;4.20;;;1.55;;
48613;SDS011;34408;51.426;5.444;2022-09-09T08:33:57;5.43;;;1.50;;
48613;SDS011;34408;51.426;5.444;2022-09-09T08:36:26;4.28;;;1.80;;
48613;SDS011;34408;51.426;5.444;2022-09-09T08:38:56;7.78;;;1.90;;
48613;SDS011;34408;51.426;5.444;2022-09-09T08:44:17;6.45;;;1.90;;
48613;SDS011;34408;51.426;5.444;2022-09-09T08:46:58;8.65;;;1.65;;
48613;SDS011;34408;51.426;5.444;2022-09-09T08:49:41;4.22;;;1.25;;
48613;SDS011;34408;51.426;5.444;2022-09-09T08:52:19;6.22;;;2.17;;
48613;SDS011;34408;51.426;5.444;2022-09-09T08:54:50;5.30;;;1.80;;
48613;SDS011;34408;51.426;5.444;2022-09-09T08:57:19;6.45;;;1.88;;
48613;SDS011;34408;51.426;5.444;2022-09-09T08:59:52;5.85;;;1.52;;
48613;SDS011;34408;51.426;5.444;2022-09-09T09:02:24;3.20;;;1.25;;
48613;SDS011;34408;51.426;5.444;2022-09-09T09:04:58;4.45;;;1.58;;
48613;SDS011;34408;51.426;5.444;2022-09-09T09:07:42;4.03;;;1.52;;
48613;SDS011;34408;51.426;5.444;2022-09-09T09:10:28;8.82;;;2.00;;
48613;SDS011;34408;51.426;5.444;2022-09-09T09:13:11;4.78;;;1.70;;
48613;SDS011;34408;51.426;5.444;2022-09-09T09:15:42;7.18;;;1.95;;
48613;SDS011;34408;51.426;5.444;2022-09-09T09:18:15;9.18;;;1.63;;
48613;SDS011;34408;51.426;5.444;2022-09-09T09:20:49;9.10;;;3.15;;
48613;SDS011;34408;51.426;5.444;2022-09-09T09:23:22;4.88;;;1.70;;
48613;SDS011;34408;51.426;5.444;2022-09-09T09:25:53;4.03;;;1.50;;
48613;SDS011;34408;51.426;5.444;2022-09-09T09:28:27;7.18;;;1.92;;
48613;SDS011;34408;51.426;5.444;2022-09-09T09:30:59;4.85;;;1.45;;
48613;SDS011;34408;51.426;5.444;2022-09-09T09:33:32;5.20;;;1.80;;
48613;SDS011;34408;51.426;5.444;2022-09-09T09:36:15;7.25;;;2.25;;
48613;SDS011;34408;51.426;5.444;2022-09-09T09:38:53;6.25;;;1.77;;
48613;SDS011;34408;51.426;5.444;2022-09-09T09:41:42;3.90;;;1.83;;
48613;SDS011;34408;51.426;5.444;2022-09-09T09:44:21;10.25;;;1.95;;
48613;SDS011;34408;51.426;5.444;2022-09-09T09:46:51;7.22;;;2.22;;
48613;SDS011;34408;51.426;5.444;2022-09-09T09:49:19;5.55;;;1.85;;
48613;SDS011;34408;51.426;5.444;2022-09-09T09:51:48;5.80;;;1.42;;
48613;SDS011;34408;51.426;5.444;2022-09-09T09:54:18;7.20;;;1.90;;
48613;SDS011;34408;51.426;5.444;2022-09-09T09:56:53;4.68;;;1.50;;
48613;SDS011;34408;51.426;5.444;2022-09-09T09:59:22;5.03;;;1.77;;
48613;SDS011;34408;51.426;5.444;2022-09-09T10:02:17;7.38;;;2.20;;
48613;SDS011;34408;51.426;5.444;2022-09-09T10:04:46;6.05;;;1.48;;
48613;SDS011;34408;51.426;5.444;2022-09-09T10:07:18;6.07;;;1.80;;
48613;SDS011;34408;51.426;5.444;2022-09-09T10:09:50;3.15;;;1.35;;
48613;SDS011;34408;51.426;5.444;2022-09-09T10:12:25;5.88;;;2.00;;
48613;SDS011;34408;51.426;5.444;2022-09-09T10:15:06;5.40;;;1.50;;
48613;SDS011;34408;51.426;5.444;2022-09-09T10:17:52;8.05;;;1.75;;
48613;SDS011;34408;51.426;5.444;2022-09-09T10:20:30;4.35;;;1.38;;
48613;SDS011;34408;51.426;5.444;2022-09-09T10:23:10;6.28;;;1.40;;
48613;SDS011;34408;51.426;5.444;2022-09-09T10:25:53;6.97;;;1.75;;
48613;SDS011;34408;51.426;5.444;2022-09-09T10:28:38;7.53;;;1.63;;
48613;SDS011;34408;51.426;5.444;2022-09-09T10:31:23;3.92;;;1.45;;
48613;SDS011;34408;51.426;5.444;2022-09-09T10:36:58;4.45;;;1.52;;
48613;SDS011;34408;51.426;5.444;2022-09-09T10:39:42;3.75;;;1.25;;
48613;SDS011;34408;51.426;5.444;2022-09-09T10:42:18;5.53;;;1.50;;
48613;SDS011;34408;51.426;5.444;2022-09-09T10:45:04;4.43;;;1.40;;
48613;SDS011;34408;51.426;5.444;2022-09-09T10:48:05;5.03;;;1.70;;
48613;SDS011;34408;51.426;5.444;2022-09-09T10:50:53;5.85;;;1.80;;
48613;SDS011;34408;51.426;5.444;2022-09-09T10:53:34;7.03;;;1.52;;
48613;SDS011;34408;51.426;5.444;2022-09-09T10:56:07;6.15;;;1.85;;
48613;SDS011;34408;51.426;5.444;2022-09-09T10:58:40;6.25;;;1.63;;
48613;SDS011;34408;51.426;5.444;2022-09-09T11:01:16;8.00;;;1.85;;
48613;SDS011;34408;51.426;5.444;2022-09-09T11:04:00;7.05;;;1.55;;
48613;SDS011;34408;51.426;5.444;2022-09-09T11:06:35;6.90;;;1.42;;
48613;SDS011;34408;51.426;5.444;2022-09-09T11:09:13;4.43;;;1.27;;
48613;SDS011;34408;51.426;5.444;2022-09-09T11:14:19;5.38;;;1.33;;
48613;SDS011;34408;51.426;5.444;2022-09-09T11:16:55;4.32;;;1.80;;
48613;SDS011;34408;51.426;5.444;2022-09-09T11:19:27;4.50;;;1.33;;
48613;SDS011;34408;51.426;5.444;2022-09-09T11:22:01;4.75;;;1.40;;
48613;SDS011;34408;51.426;5.444;2022-09-09T11:24:35;5.10;;;1.67;;
48613;SDS011;34408;51.426;5.444;2022-09-09T11:27:09;7.55;;;2.38;;
48613;SDS011;34408;51.426;5.444;2022-09-09T11:30:02;6.28;;;1.98;;
48613;SDS011;34408;51.426;5.444;2022-09-09T11:36:16;3.78;;;1.42;;
48613;SDS011;34408;51.426;5.444;2022-09-09T11:38:59;5.18;;;1.85;;
48613;SDS011;34408;51.426;5.444;2022-09-09T11:41:35;3.78;;;1.55;;
48613;SDS011;34408;51.426;5.444;2022-09-09T11:44:11;2.60;;;1.10;;
48613;SDS011;34408;51.426;5.444;2022-09-09T11:46:40;2.42;;;1.30;;
48613;SDS011;34408;51.426;5.444;2022-09-09T11:49:21;2.50;;;1.10;;
48613;SDS011;34408;51.426;5.444;2022-09-09T11:51:54;3.28;;;1.40;;
48613;SDS011;34408;51.426;5.444;2022-09-09T11:54:27;3.35;;;1.20;;
48613;SDS011;34408;51.426;5.444;2022-09-09T11:56:58;3.42;;;1.30;;
48613;SDS011;34408;51.426;5.444;2022-09-09T11:59:28;3.35;;;1.42;;
48613;SDS011;34408;51.426;5.444;2022-09-09T12:01:58;5.57;;;1.52;;
48613;SDS011;34408;51.426;5.444;2022-09-09T12:04:29;4.25;;;1.08;;
48613;SDS011;34408;51.426;5.444;2022-09-09T12:07:00;6.28;;;1.85;;
48613;SDS011;34408;51.426;5.444;2022-09-09T12:09:32;5.75;;;1.63;;
48613;SDS011;34408;51.426;5.444;2022-09-09T12:15:21;4.68;;;1.63;;
48613;SDS011;34408;51.426;5.444;2022-09-09T12:17:54;3.72;;;1.30;;
48613;SDS011;34408;51.426;5.444;2022-09-09T12:20:31;4.28;;;1.40;;
48613;SDS011;34408;51.426;5.444;2022-09-09T12:23:10;2.15;;;1.02;;
48613;SDS011;34408;51.426;5.444;2022-09-09T12:25:50;6.15;;;2.17;;
48613;SDS011;34408;51.426;5.444;2022-09-09T12:28:25;5.35;;;1.30;;
48613;SDS011;34408;51.426;5.444;2022-09-09T12:31:02;3.75;;;1.20;;
48613;SDS011;34408;51.426;5.444;2022-09-09T12:33:37;2.33;;;1.15;;
48613;SDS011;34408;51.426;5.444;2022-09-09T12:36:10;5.50;;;2.22;;
48613;SDS011;34408;51.426;5.444;2022-09-09T12:38:41;9.00;;;1.40;;
48613;SDS011;34408;51.426;5.444;2022-09-09T12:41:17;6.85;;;2.65;;
48613;SDS011;34408;51.426;5.444;2022-09-09T12:43:47;4.97;;;1.42;;
48613;SDS011;34408;51.426;5.444;2022-09-09T12:46:20;6.35;;;1.42;;
48613;SDS011;34408;51.426;5.444;2022-09-09T12:48:57;4.43;;;1.40;;
48613;SDS011;34408;51.426;5.444;2022-09-09T12:51:26;3.47;;;1.58;;
48613;SDS011;34408;51.426;5.444;2022-09-09T12:53:56;5.00;;;1.50;;
48613;SDS011;34408;51.426;5.444;2022-09-09T12:56:25;5.30;;;1.50;;
48613;SDS011;34408;51.426;5.444;2022-09-09T12:58:56;3.72;;;1.20;;
48613;SDS011;34408;51.426;5.444;2022-09-09T13:01:27;6.00;;;2.10;;
48613;SDS011;34408;51.426;5.444;2022-09-09T13:03:56;4.93;;;1.63;;
48613;SDS011;34408;51.426;5.444;2022-09-09T13:06:25;3.50;;;1.17;;
48613;SDS011;34408;51.426;5.444;2022-09-09T13:08:55;5.47;;;1.60;;
48613;SDS011;34408;51.426;5.444;2022-09-09T13:11:25;4.00;;;1.90;;
48613;SDS011;34408;51.426;5.444;2022-09-09T13:13:57;3.55;;;1.40;;
48613;SDS011;34408;51.426;5.444;2022-09-09T13:16:29;5.03;;;1.65;;
48613;SDS011;34408;51.426;5.444;2022-09-09T13:19:06;5.18;;;1.38;;
48613;SDS011;34408;51.426;5.444;2022-09-09T13:21:36;4.05;;;1.30;;
48613;SDS011;34408;51.426;5.444;2022-09-09T13:24:06;3.83;;;1.33;;
48613;SDS011;34408;51.426;5.444;2022-09-09T13:26:53;6.60;;;2.13;;
48613;SDS011;34408;51.426;5.444;2022-09-09T13:29:23;5.00;;;1.48;;
48613;SDS011;34408;51.426;5.444;2022-09-09T13:31:52;3.17;;;1.20;;
48613;SDS011;34408;51.426;5.444;2022-09-09T13:34:28;9.43;;;1.50;;
48613;SDS011;34408;51.426;5.444;2022-09-09T13:36:59;5.32;;;1.60;;
48613;SDS011;34408;51.426;5.444;2022-09-09T13:39:29;4.57;;;1.42;;
48613;SDS011;34408;51.426;5.444;2022-09-09T13:41:57;3.08;;;1.35;;
48613;SDS011;34408;51.426;5.444;2022-09-09T13:44:26;7.40;;;1.85;;
48613;SDS011;34408;51.426;5.444;2022-09-09T13:47:04;5.25;;;2.13;;
48613;SDS011;34408;51.426;5.444;2022-09-09T13:49:36;3.38;;;1.52;;
48613;SDS011;34408;51.426;5.444;2022-09-09T13:52:04;4.53;;;1.52;;
48613;SDS011;34408;51.426;5.444;2022-09-09T13:54:35;3.35;;;1.20;;
48613;SDS011;34408;51.426;5.444;2022-09-09T13:57:03;8.57;;;1.60;;
48613;SDS011;34408;51.426;5.444;2022-09-09T13:59:31;5.28;;;1.63;;
48613;SDS011;34408;51.426;5.444;2022-09-09T14:02:20;5.60;;;1.52;;
48613;SDS011;34408;51.426;5.444;2022-09-09T14:04:49;4.45;;;1.33;;
48613;SDS011;34408;51.426;5.444;2022-09-09T14:07:21;4.70;;;1.38;;
48613;SDS011;34408;51.426;5.444;2022-09-09T14:09:49;4.10;;;1.17;;
48613;SDS011;34408;51.426;5.444;2022-09-09T14:12:17;5.35;;;1.30;;
48613;SDS011;34408;51.426;5.444;2022-09-09T14:14:46;3.90;;;1.63;;
48613;SDS011;34408;51.426;5.444;2022-09-09T14:17:14;3.13;;;1.13;;
48613;SDS011;34408;51.426;5.444;2022-09-09T14:19:43;4.45;;;1.33;;
48613;SDS011;34408;51.426;5.444;2022-09-09T14:22:11;5.88;;;1.33;;
48613;SDS011;34408;51.426;5.444;2022-09-09T14:24:38;4.70;;;1.40;;
48613;SDS011;34408;51.426;5.444;2022-09-09T14:27:07;6.60;;;1.48;;
48613;SDS011;34408;51.426;5.444;2022-09-09T14:29:34;6.85;;;1.98;;
48613;SDS011;34408;51.426;5.444;2022-09-09T14:32:02;4.40;;;1.73;;
48613;SDS011;34408;51.426;5.444;2022-09-09T14:34:35;3.65;;;1.48;;
48613;SDS011;34408;51.426;5.444;2022-09-09T14:37:04;3.08;;;1.60;;
48613;SDS011;34408;51.426;5.444;2022-09-09T14:39:32;5.90;;;2.28;;
48613;SDS011;34408;51.426;5.444;2022-09-09T14:42:00;2.05;;;1.05;;
48613;SDS011;34408;51.426;5.444;2022-09-09T14:44:28;6.97;;;2.20;;
48613;SDS011;34408;51.426;5.444;2022-09-09T14:46:56;5.35;;;1.75;;
48613;SDS011;34408;51.426;5.444;2022-09-09T14:49:24;2.90;;;1.15;;
48613;SDS011;34408;51.426;5.444;2022-09-09T14:51:52;7.05;;;1.83;;
48613;SDS011;34408;51.426;5.444;2022-09-09T14:54:21;4.43;;;1.50;;
48613;SDS011;34408;51.426;5.444;2022-09-09T14:56:49;3.13;;;1.23;;
48613;SDS011;34408;51.426;5.444;2022-09-09T14:59:16;4.60;;;1.45;;
48613;SDS011;34408;51.426;5.444;2022-09-09T15:01:44;3.45;;;1.27;;
48613;SDS011;34408;51.426;5.444;2022-09-09T15:04:12;2.42;;;1.27;;
48613;SDS011;34408;51.426;5.444;2022-09-09T15:06:41;3.92;;;1.20;;
48613;SDS011;34408;51.426;5.444;2022-09-09T15:09:10;3.00;;;1.10;;
48613;SDS011;34408;51.426;5.444;2022-09-09T15:11:39;4.18;;;1.40;;
48613;SDS011;34408;51.426;5.444;2022-09-09T15:14:08;4.82;;;1.27;;
48613;SDS011;34408;51.426;5.444;2022-09-09T15:16:37;3.83;;;1.05;;
48613;SDS011;34408;51.426;5.444;2022-09-09T15:19:06;4.63;;;1.50;;
48613;SDS011;34408;51.426;5.444;2022-09-09T15:21:35;5.72;;;1.38;;
48613;SDS011;34408;51.426;5.444;2022-09-09T15:24:04;6.32;;;1.95;;
48613;SDS011;34408;51.426;5.444;2022-09-09T15:26:34;1.27;;;0.85;;
48613;SDS011;34408;51.426;5.444;2022-09-09T15:29:06;3.70;;;1.10;;
48613;SDS011;34408;51.426;5.444;2022-09-09T15:31:34;9.55;;;1.27;;
48613;SDS011;34408;51.426;5.444;2022-09-09T15:34:04;4.70;;;1.33;;
48613;SDS011;34408;51.426;5.444;2022-09-09T15:36:33;4.65;;;1.73;;